Buoy 46563

sailwx.info

Track history (hours):
 
Tides and Currents Weather Stations Pressure Air Temp Water Temp Dewpoint Dewpoint Depression Visibility Wind Speed Wind Dir Waves Ship Positions

Drifting buoy 46563

Last reported at 2014-Aug-23 06:00 UTC. Time now 2014-Aug-23 09:30 UTC.
Position N 24°24' W 125°15'.

Water temperature 23.5 ° C

Date/timePositionNaut miles runAvg speedWind from/ knotsBaromVisibWave heightAir tempDewpointWater temp
2014-Aug-23 06:00N 24°24' W 125°15'1 1.1 23.5
2014-Aug-23 05:00N 24°23' W 125°14'2 0.8 23.5
2014-Aug-23 02:00N 24°22' W 125°12'1 1.0 23.6
2014-Aug-23 01:00N 24°22' W 125°11'2 0.9 23.6
2014-Aug-22 23:00N 24°21' W 125°09'1 0.6 23.6
2014-Aug-22 21:00N 24°20' W 125°08'4 0.6 23.7
2014-Aug-22 14:00N 24°21' W 125°04'0 0.0 23.7
2014-Aug-22 13:00N 24°21' W 125°04'1 0.8 23.7
2014-Aug-22 12:00N 24°21' W 125°05'1 0.7 23.7
2014-Aug-22 11:00N 24°21' W 125°04'1 1.2 23.7
2014-Aug-22 10:00N 24°21' W 125°05'0 0.0 23.7
2014-Aug-22 09:00N 24°21' W 125°05'2 0.8 23.7
2014-Aug-22 06:00N 24°20' W 125°03'1 0.5 23.7
2014-Aug-22 03:00N 24°19' W 125°01'0 0.1 23.7
2014-Aug-22 01:00N 24°19' W 125°01'1 0.6 23.7
2014-Aug-21 23:00N 24°19' W 124°60'0 0.2 23.7
2014-Aug-21 21:00N 24°19' W 124°59'2 1.7 23.7
2014-Aug-21 20:00N 24°19' W 124°58'1 0.6 23.7
2014-Aug-21 19:00N 24°20' W 124°57'0 0.0 23.6
2014-Aug-21 16:00N 24°20' W 124°57'1 0.3 23.6
2014-Aug-21 14:00N 24°19' W 124°58'0 0.2 23.6
2014-Aug-21 13:00N 24°19' W 124°58'0 0.4 23.6
2014-Aug-21 12:00N 24°19' W 124°58'1 0.4 23.6
2014-Aug-21 10:00N 24°19' W 124°57'0 0.0 23.7
2014-Aug-21 05:00N 24°18' W 124°57'0 0.2 23.7
2014-Aug-21 04:00N 24°19' W 124°57'0 0.4 23.7
2014-Aug-21 03:00N 24°19' W 124°57'1 0.6 23.7
2014-Aug-21 02:00N 24°18' W 124°57'1 0.4 23.8
2014-Aug-21 00:00N 24°17' W 124°57'0 0.0 23.8
2014-Aug-20 23:00N 24°17' W 124°57'0 0.0 23.7
2014-Aug-20 21:00N 24°17' W 124°57'1 0.2 23.7
2014-Aug-20 17:00N 24°17' W 124°55'0 0.0 23.7
2014-Aug-20 15:00N 24°17' W 124°55'1 0.2 23.7
2014-Aug-20 10:00N 24°18' W 124°56'0 0.0 23.8
2014-Aug-20 06:00N 24°18' W 124°56'1 0.4 23.8
2014-Aug-20 04:00N 24°19' W 124°57'0 0.0 23.8
2014-Aug-20 03:00N 24°19' W 124°57'0 0.0 23.8
2014-Aug-20 02:00N 24°19' W 124°57'0 0.1 23.8
2014-Aug-20 01:00N 24°18' W 124°57'1 0.3 23.8
2014-Aug-19 21:00N 24°18' W 124°58'1 0.2 23.8
2014-Aug-19 18:00N 24°18' W 124°59'1 0.8 23.7
2014-Aug-19 17:00N 24°18' W 124°58'0 0.0 23.6
2014-Aug-19 16:00N 24°18' W 124°58'1 0.1 23.6
2014-Aug-19 12:00N 24°18' W 124°58'0 0.1 23.5
2014-Aug-19 10:00N 24°18' W 124°58'1 0.3 23.5
2014-Aug-19 06:00N 24°19' W 124°59'1 0.3 23.4
2014-Aug-19 04:00N 24°19' W 124°58'0 0.1 23.6
2014-Aug-19 00:00N 24°19' W 124°59'1 0.8 23.7
2014-Aug-18 23:00N 24°19' W 124°58'2 1.5 23.7
2014-Aug-18 22:00N 24°19' W 124°60'0 0.0 23.6
2014-Aug-18 21:00N 24°19' W 124°60'0 0.1 23.6
2014-Aug-18 18:00N 24°19' W 124°60'2 0.4 23.6
2014-Aug-18 13:00N 24°17' W 125°01'1 0.2 23.5
2014-Aug-18 10:00N 24°16' W 125°01'0 0.0 23.5
2014-Aug-18 09:00N 24°16' W 125°01'0 0.1 23.5
2014-Aug-18 06:00N 24°16' W 125°02'0 0.2 23.6
2014-Aug-18 05:00N 24°16' W 125°02'0 0.4 23.6
2014-Aug-18 04:00N 24°16' W 125°02'0 0.0 23.6
2014-Aug-18 03:00N 24°16' W 125°02'0 0.1 23.6
2014-Aug-18 00:00N 24°15' W 125°02'0 0.2 23.5
2014-Aug-17 22:00N 24°15' W 125°01'0 0.2 23.5
2014-Aug-17 21:00N 24°15' W 125°01'0 0.1 23.5
2014-Aug-17 19:00N 24°15' W 125°01'0 0.5 23.4
2014-Aug-17 18:00N 24°15' W 125°02'0 0.0 23.4
2014-Aug-17 17:00N 24°15' W 125°02'2 0.4 23.4
2014-Aug-17 13:00N 24°14' W 125°03'0 0.0 23.3
2014-Aug-17 12:00N 24°14' W 125°03'1 0.8 23.3
2014-Aug-17 11:00N 24°14' W 125°03'3 1.4 23.3
2014-Aug-17 09:00N 24°11' W 125°04'0 0.0 23.3
2014-Aug-17 08:00N 24°11' W 125°04'0 0.0 23.3
2014-Aug-17 06:00N 24°11' W 125°04'0 0.0 23.4
2014-Aug-17 05:00N 24°11' W 125°04'1 0.4 23.4
2014-Aug-17 02:00N 24°11' W 125°03'1 0.6 23.4
2014-Aug-17 01:00N 24°11' W 125°02'0 0.0 23.4
2014-Aug-17 00:00N 24°11' W 125°02'0 0.2 23.4
2014-Aug-16 23:00N 24°11' W 125°02'0 0.3 23.4
2014-Aug-16 22:00N 24°11' W 125°02'1 0.1 23.5
2014-Aug-16 18:00N 24°10' W 125°02'0 0.0 23.4
2014-Aug-16 17:00N 24°10' W 125°02'1 0.6 23.3
2014-Aug-16 16:00N 24°10' W 125°03'0 0.0 23.3
2014-Aug-16 15:00N 24°10' W 125°03'1 0.3 23.3
2014-Aug-16 13:00N 24°10' W 125°03'0 0.0 23.3
2014-Aug-16 12:00N 24°10' W 125°03'0 0.1 23.3
2014-Aug-16 11:00N 24°10' W 125°03'1 0.4 23.3
2014-Aug-16 09:00N 24°10' W 125°04'1 0.2 23.3
2014-Aug-16 05:00N 24°09' W 125°05'1 1.3 23.3
2014-Aug-16 04:00N 24°08' W 125°03'1 0.2 23.3
2014-Aug-16 01:00N 24°08' W 125°04'1 0.5 23.4
2014-Aug-15 23:00N 24°08' W 125°05'0 0.0 23.4
2014-Aug-15 22:00N 24°08' W 125°05'1 0.3 23.3
2014-Aug-15 20:00N 24°07' W 125°04'1 0.3 23.3
2014-Aug-15 18:00N 24°07' W 125°05'0 0.1 23.3
2014-Aug-15 13:00N 24°07' W 125°05'0 0.3 23.3
2014-Aug-15 12:00N 24°07' W 125°05'0 0.5 23.3
2014-Aug-15 11:00N 24°07' W 125°06'0 0.2 23.3
2014-Aug-15 09:00N 24°06' W 125°06'0 0.0 23.3
2014-Aug-15 06:00N 24°06' W 125°06'0 0.4 23.3
2014-Aug-15 05:00N 24°06' W 125°06'0 0.1 23.3
2014-Aug-15 04:00N 24°06' W 125°06'0 0.2 23.3
2014-Aug-15 03:00N 24°06' W 125°07'1 0.7 23.3
2014-Aug-15 02:00N 24°06' W 125°07'0 0.3 23.3
2014-Aug-15 01:00N 24°06' W 125°08'0 0.0 23.4
2014-Aug-15 00:00N 24°06' W 125°08'0 0.2 23.4
2014-Aug-14 23:00N 24°06' W 125°08'0 0.1 23.3
2014-Aug-14 22:00N 24°06' W 125°08'1 1.1 23.3
2014-Aug-14 21:00N 24°05' W 125°09'0 0.0 23.3
2014-Aug-14 19:00N 24°05' W 125°09'1 0.7 23.3
2014-Aug-14 18:00N 24°05' W 125°09'0 0.0 23.3
2014-Aug-14 17:00N 24°05' W 125°09'1 0.6 23.3
2014-Aug-14 16:00N 24°04' W 125°09'0 0.0 23.2
2014-Aug-14 15:00N 24°04' W 125°09'0 0.1 23.2
2014-Aug-14 14:00N 24°04' W 125°09'0 0.1 23.3
2014-Aug-14 13:00N 24°04' W 125°09'0 0.1 23.3
2014-Aug-14 12:00N 24°04' W 125°09'0 0.1 23.3
2014-Aug-14 11:00N 24°04' W 125°09'0 0.0 23.3
2014-Aug-14 08:00N 24°04' W 125°09'0 0.1 23.3
2014-Aug-14 06:00N 24°04' W 125°09'0 0.3 23.3
2014-Aug-14 05:00N 24°04' W 125°09'1 0.3 23.3
2014-Aug-14 03:00N 24°04' W 125°10'0 0.0 23.4
2014-Aug-14 02:00N 24°04' W 125°10'0 0.3 23.4
2014-Aug-14 01:00N 24°04' W 125°10'1 0.6 23.4
2014-Aug-14 00:00N 24°04' W 125°11'1 0.3 23.5
2014-Aug-13 21:00N 24°04' W 125°11'1 0.3 23.4
2014-Aug-13 19:00N 24°04' W 125°12'1 0.6 23.3
2014-Aug-13 18:00N 24°03' W 125°12'0 0.0 23.3
2014-Aug-13 17:00N 24°03' W 125°12'1 0.3 23.3
2014-Aug-13 14:00N 24°03' W 125°13'0 0.0 23.3
2014-Aug-13 13:00N 24°03' W 125°13'0 0.2 23.3
2014-Aug-13 12:00N 24°03' W 125°13'1 0.6 23.3
2014-Aug-13 11:00N 24°02' W 125°14'0 0.0 23.3
2014-Aug-13 09:00N 24°02' W 125°14'1 0.2 23.3
2014-Aug-13 06:00N 24°02' W 125°14'   23.4
Track history (hours):
 
Tides and Currents Weather Stations Pressure Air Temp Water Temp Dewpoint Dewpoint Depression Visibility Wind Speed Wind Dir Waves Ship Positions

Drifting buoy 46563

Last reported at 2014-Aug-23 06:00 UTC. Time now 2014-Aug-23 09:30 UTC.
Position N 24°24' W 125°15'.

Water temperature 23.5 ° C

Date/timePositionNaut miles runAvg speedWind from/ knotsBaromVisibWave heightAir tempDewpointWater temp
2014-Aug-23 06:00N 24°24' W 125°15'1 1.1 23.5
2014-Aug-23 05:00N 24°23' W 125°14'2 0.8 23.5
2014-Aug-23 02:00N 24°22' W 125°12'1 1.0 23.6
2014-Aug-23 01:00N 24°22' W 125°11'2 0.9 23.6
2014-Aug-22 23:00N 24°21' W 125°09'1 0.6 23.6
2014-Aug-22 21:00N 24°20' W 125°08'4 0.6 23.7
2014-Aug-22 14:00N 24°21' W 125°04'0 0.0 23.7
2014-Aug-22 13:00N 24°21' W 125°04'1 0.8 23.7
2014-Aug-22 12:00N 24°21' W 125°05'1 0.7 23.7
2014-Aug-22 11:00N 24°21' W 125°04'1 1.2 23.7
2014-Aug-22 10:00N 24°21' W 125°05'0 0.0 23.7
2014-Aug-22 09:00N 24°21' W 125°05'2 0.8 23.7
2014-Aug-22 06:00N 24°20' W 125°03'1 0.5 23.7
2014-Aug-22 03:00N 24°19' W 125°01'0 0.1 23.7
2014-Aug-22 01:00N 24°19' W 125°01'1 0.6 23.7
2014-Aug-21 23:00N 24°19' W 124°60'0 0.2 23.7
2014-Aug-21 21:00N 24°19' W 124°59'2 1.7 23.7
2014-Aug-21 20:00N 24°19' W 124°58'1 0.6 23.7
2014-Aug-21 19:00N 24°20' W 124°57'0 0.0 23.6
2014-Aug-21 16:00N 24°20' W 124°57'1 0.3 23.6
2014-Aug-21 14:00N 24°19' W 124°58'0 0.2 23.6
2014-Aug-21 13:00N 24°19' W 124°58'0 0.4 23.6
2014-Aug-21 12:00N 24°19' W 124°58'1 0.4 23.6
2014-Aug-21 10:00N 24°19' W 124°57'0 0.0 23.7
2014-Aug-21 05:00N 24°18' W 124°57'0 0.2 23.7
2014-Aug-21 04:00N 24°19' W 124°57'0 0.4 23.7
2014-Aug-21 03:00N 24°19' W 124°57'1 0.6 23.7
2014-Aug-21 02:00N 24°18' W 124°57'1 0.4 23.8
2014-Aug-21 00:00N 24°17' W 124°57'0 0.0 23.8
2014-Aug-20 23:00N 24°17' W 124°57'0 0.0 23.7
2014-Aug-20 21:00N 24°17' W 124°57'1 0.2 23.7
2014-Aug-20 17:00N 24°17' W 124°55'0 0.0 23.7
2014-Aug-20 15:00N 24°17' W 124°55'1 0.2 23.7
2014-Aug-20 10:00N 24°18' W 124°56'0 0.0 23.8
2014-Aug-20 06:00N 24°18' W 124°56'1 0.4 23.8
2014-Aug-20 04:00N 24°19' W 124°57'0 0.0 23.8
2014-Aug-20 03:00N 24°19' W 124°57'0 0.0 23.8
2014-Aug-20 02:00N 24°19' W 124°57'0 0.1 23.8
2014-Aug-20 01:00N 24°18' W 124°57'1 0.3 23.8
2014-Aug-19 21:00N 24°18' W 124°58'1 0.2 23.8
2014-Aug-19 18:00N 24°18' W 124°59'1 0.8 23.7
2014-Aug-19 17:00N 24°18' W 124°58'0 0.0 23.6
2014-Aug-19 16:00N 24°18' W 124°58'1 0.1 23.6
2014-Aug-19 12:00N 24°18' W 124°58'0 0.1 23.5
2014-Aug-19 10:00N 24°18' W 124°58'1 0.3 23.5
2014-Aug-19 06:00N 24°19' W 124°59'1 0.3 23.4
2014-Aug-19 04:00N 24°19' W 124°58'0 0.1 23.6
2014-Aug-19 00:00N 24°19' W 124°59'1 0.8 23.7
2014-Aug-18 23:00N 24°19' W 124°58'2 1.5 23.7
2014-Aug-18 22:00N 24°19' W 124°60'0 0.0 23.6
2014-Aug-18 21:00N 24°19' W 124°60'0 0.1 23.6
2014-Aug-18 18:00N 24°19' W 124°60'2 0.4 23.6
2014-Aug-18 13:00N 24°17' W 125°01'1 0.2 23.5
2014-Aug-18 10:00N 24°16' W 125°01'0 0.0 23.5
2014-Aug-18 09:00N 24°16' W 125°01'0 0.1 23.5
2014-Aug-18 06:00N 24°16' W 125°02'0 0.2 23.6
2014-Aug-18 05:00N 24°16' W 125°02'0 0.4 23.6
2014-Aug-18 04:00N 24°16' W 125°02'0 0.0 23.6
2014-Aug-18 03:00N 24°16' W 125°02'0 0.1 23.6
2014-Aug-18 00:00N 24°15' W 125°02'0 0.2 23.5
2014-Aug-17 22:00N 24°15' W 125°01'0 0.2 23.5
2014-Aug-17 21:00N 24°15' W 125°01'0 0.1 23.5
2014-Aug-17 19:00N 24°15' W 125°01'0 0.5 23.4
2014-Aug-17 18:00N 24°15' W 125°02'0 0.0 23.4
2014-Aug-17 17:00N 24°15' W 125°02'2 0.4 23.4
2014-Aug-17 13:00N 24°14' W 125°03'0 0.0 23.3
2014-Aug-17 12:00N 24°14' W 125°03'1 0.8 23.3
2014-Aug-17 11:00N 24°14' W 125°03'3 1.4 23.3
2014-Aug-17 09:00N 24°11' W 125°04'0 0.0 23.3
2014-Aug-17 08:00N 24°11' W 125°04'0 0.0 23.3
2014-Aug-17 06:00N 24°11' W 125°04'0 0.0 23.4
2014-Aug-17 05:00N 24°11' W 125°04'1 0.4 23.4
2014-Aug-17 02:00N 24°11' W 125°03'1 0.6 23.4
2014-Aug-17 01:00N 24°11' W 125°02'0 0.0 23.4
2014-Aug-17 00:00N 24°11' W 125°02'0 0.2 23.4
2014-Aug-16 23:00N 24°11' W 125°02'0 0.3 23.4
2014-Aug-16 22:00N 24°11' W 125°02'1 0.1 23.5
2014-Aug-16 18:00N 24°10' W 125°02'0 0.0 23.4
2014-Aug-16 17:00N 24°10' W 125°02'1 0.6 23.3
2014-Aug-16 16:00N 24°10' W 125°03'0 0.0 23.3
2014-Aug-16 15:00N 24°10' W 125°03'1 0.3 23.3
2014-Aug-16 13:00N 24°10' W 125°03'0 0.0 23.3
2014-Aug-16 12:00N 24°10' W 125°03'0 0.1 23.3
2014-Aug-16 11:00N 24°10' W 125°03'1 0.4 23.3
2014-Aug-16 09:00N 24°10' W 125°04'1 0.2 23.3
2014-Aug-16 05:00N 24°09' W 125°05'1 1.3 23.3
2014-Aug-16 04:00N 24°08' W 125°03'1 0.2 23.3
2014-Aug-16 01:00N 24°08' W 125°04'1 0.5 23.4
2014-Aug-15 23:00N 24°08' W 125°05'0 0.0 23.4
2014-Aug-15 22:00N 24°08' W 125°05'1 0.3 23.3
2014-Aug-15 20:00N 24°07' W 125°04'1 0.3 23.3
2014-Aug-15 18:00N 24°07' W 125°05'0 0.1 23.3
2014-Aug-15 13:00N 24°07' W 125°05'0 0.3 23.3
2014-Aug-15 12:00N 24°07' W 125°05'0 0.5 23.3
2014-Aug-15 11:00N 24°07' W 125°06'0 0.2 23.3
2014-Aug-15 09:00N 24°06' W 125°06'0 0.0 23.3
2014-Aug-15 06:00N 24°06' W 125°06'0 0.4 23.3
2014-Aug-15 05:00N 24°06' W 125°06'0 0.1 23.3
2014-Aug-15 04:00N 24°06' W 125°06'0 0.2 23.3
2014-Aug-15 03:00N 24°06' W 125°07'1 0.7 23.3
2014-Aug-15 02:00N 24°06' W 125°07'0 0.3 23.3
2014-Aug-15 01:00N 24°06' W 125°08'0 0.0 23.4
2014-Aug-15 00:00N 24°06' W 125°08'0 0.2 23.4
2014-Aug-14 23:00N 24°06' W 125°08'0 0.1 23.3
2014-Aug-14 22:00N 24°06' W 125°08'1 1.1 23.3
2014-Aug-14 21:00N 24°05' W 125°09'0 0.0 23.3
2014-Aug-14 19:00N 24°05' W 125°09'1 0.7 23.3
2014-Aug-14 18:00N 24°05' W 125°09'0 0.0 23.3
2014-Aug-14 17:00N 24°05' W 125°09'1 0.6 23.3
2014-Aug-14 16:00N 24°04' W 125°09'0 0.0 23.2
2014-Aug-14 15:00N 24°04' W 125°09'0 0.1 23.2
2014-Aug-14 14:00N 24°04' W 125°09'0 0.1 23.3
2014-Aug-14 13:00N 24°04' W 125°09'0 0.1 23.3
2014-Aug-14 12:00N 24°04' W 125°09'0 0.1 23.3
2014-Aug-14 11:00N 24°04' W 125°09'0 0.0 23.3
2014-Aug-14 08:00N 24°04' W 125°09'0 0.1 23.3
2014-Aug-14 06:00N 24°04' W 125°09'0 0.3 23.3
2014-Aug-14 05:00N 24°04' W 125°09'1 0.3 23.3
2014-Aug-14 03:00N 24°04' W 125°10'0 0.0 23.4
2014-Aug-14 02:00N 24°04' W 125°10'0 0.3 23.4
2014-Aug-14 01:00N 24°04' W 125°10'1 0.6 23.4
2014-Aug-14 00:00N 24°04' W 125°11'1 0.3 23.5
2014-Aug-13 21:00N 24°04' W 125°11'1 0.3 23.4
2014-Aug-13 19:00N 24°04' W 125°12'1 0.6 23.3
2014-Aug-13 18:00N 24°03' W 125°12'0 0.0 23.3
2014-Aug-13 17:00N 24°03' W 125°12'1 0.3 23.3
2014-Aug-13 14:00N 24°03' W 125°13'0 0.0 23.3
2014-Aug-13 13:00N 24°03' W 125°13'0 0.2 23.3
2014-Aug-13 12:00N 24°03' W 125°13'1 0.6 23.3
2014-Aug-13 11:00N 24°02' W 125°14'0 0.0 23.3
2014-Aug-13 09:00N 24°02' W 125°14'1 0.2 23.3
2014-Aug-13 06:00N 24°02' W 125°14'   23.4

Dump ship's entire track history